createdAt,value
2018-01-14T00:00:16.930Z,0
2018-01-14T00:00:57.492Z,0
2018-01-14T00:01:38.072Z,0
2018-01-14T00:02:18.647Z,0
2018-01-14T00:02:59.234Z,0
2018-01-14T00:03:39.809Z,0
2018-01-14T00:04:20.375Z,0
2018-01-14T00:05:00.943Z,0
2018-01-14T00:05:41.512Z,0
2018-01-14T00:06:22.079Z,0
2018-01-14T00:07:02.641Z,0
2018-01-14T00:07:43.206Z,0
2018-01-14T00:08:23.784Z,0
2018-01-14T00:09:04.348Z,0
2018-01-14T00:09:44.919Z,0
2018-01-14T00:10:25.474Z,0
2018-01-14T00:11:06.068Z,0
2018-01-14T00:11:46.619Z,0
2018-01-14T00:12:27.212Z,0
2018-01-14T00:13:07.781Z,0
2018-01-14T00:13:48.348Z,0
2018-01-14T00:14:28.909Z,0
2018-01-14T00:15:09.464Z,0
2018-01-14T00:15:50.024Z,0
2018-01-14T00:16:30.587Z,0
2018-01-14T00:17:11.140Z,0
2018-01-14T00:17:51.712Z,0
2018-01-14T00:18:32.295Z,0
2018-01-14T00:19:12.868Z,0
2018-01-14T00:19:53.445Z,0
2018-01-14T00:20:34.037Z,0
2018-01-14T00:21:14.589Z,0
2018-01-14T00:21:55.150Z,0
2018-01-14T00:22:35.709Z,0
2018-01-14T00:23:16.264Z,0
2018-01-14T00:23:56.827Z,0
2018-01-14T00:24:37.398Z,0
2018-01-14T00:25:17.992Z,0
2018-01-14T00:25:58.549Z,0
2018-01-14T00:26:39.105Z,0
2018-01-14T00:27:19.674Z,0
2018-01-14T00:28:00.242Z,0
2018-01-14T00:28:40.888Z,0
2018-01-14T00:29:21.470Z,0
2018-01-14T00:30:02.064Z,0
2018-01-14T00:30:42.647Z,0
2018-01-14T00:31:23.245Z,0
2018-01-14T00:32:03.830Z,0
2018-01-14T00:32:44.391Z,0
2018-01-14T00:33:24.982Z,0
2018-01-14T00:34:05.562Z,0
2018-01-14T00:34:46.143Z,0
2018-01-14T00:35:26.721Z,0
2018-01-14T00:36:07.297Z,0
2018-01-14T00:36:47.852Z,0
2018-01-14T00:37:28.412Z,0
2018-01-14T00:38:08.981Z,0
2018-01-14T00:38:49.541Z,0
2018-01-14T00:39:30.126Z,0
2018-01-14T00:40:10.671Z,0
2018-01-14T00:40:51.246Z,0
2018-01-14T00:41:31.821Z,0
2018-01-14T00:42:12.406Z,0
2018-01-14T00:42:52.984Z,0
2018-01-14T00:43:33.568Z,0
2018-01-14T00:44:14.146Z,0
2018-01-14T00:44:54.716Z,0
2018-01-14T00:45:35.273Z,0
2018-01-14T00:46:15.834Z,0
2018-01-14T00:46:56.417Z,0
2018-01-14T00:47:36.964Z,0
2018-01-14T00:48:17.553Z,0
2018-01-14T00:48:58.125Z,0
2018-01-14T00:49:38.711Z,0
2018-01-14T00:50:19.278Z,0
2018-01-14T00:50:59.830Z,0
2018-01-14T00:51:40.397Z,0
2018-01-14T00:52:20.954Z,0
2018-01-14T00:53:01.499Z,0
2018-01-14T00:53:42.109Z,0
2018-01-14T00:54:22.682Z,0
2018-01-14T00:55:03.269Z,0
2018-01-14T00:55:43.837Z,0
2018-01-14T00:56:24.399Z,0
2018-01-14T00:57:05.007Z,0
2018-01-14T00:57:45.559Z,0
2018-01-14T00:58:26.116Z,0
2018-01-14T00:59:06.689Z,0
2018-01-14T00:59:47.286Z,0
2018-01-14T01:00:27.834Z,0
2018-01-14T01:01:08.414Z,0
2018-01-14T01:01:48.996Z,0
2018-01-14T01:02:29.532Z,0
2018-01-14T01:03:10.123Z,0
2018-01-14T01:03:50.670Z,0
2018-01-14T01:04:31.255Z,0
2018-01-14T01:05:11.844Z,0
2018-01-14T01:05:52.397Z,0
2018-01-14T01:06:32.981Z,0
2018-01-14T01:07:13.549Z,0
2018-01-14T01:07:54.119Z,0
2018-01-14T01:08:34.688Z,0
2018-01-14T01:09:15.256Z,0
2018-01-14T01:09:55.818Z,0
2018-01-14T01:10:36.439Z,0
2018-01-14T01:11:18.942Z,0
2018-01-14T01:11:59.513Z,0
2018-01-14T01:12:40.076Z,0
2018-01-14T01:13:20.654Z,0
2018-01-14T01:14:01.224Z,0
2018-01-14T01:14:41.793Z,0
2018-01-14T01:15:22.351Z,0
2018-01-14T01:16:02.925Z,0
2018-01-14T01:16:43.499Z,0
2018-01-14T01:17:24.059Z,0
2018-01-14T01:18:04.613Z,0
2018-01-14T01:18:45.164Z,0
2018-01-14T01:19:25.741Z,0
2018-01-14T01:20:06.303Z,0
2018-01-14T01:20:46.870Z,0
2018-01-14T01:21:27.456Z,0
2018-01-14T01:22:08.018Z,0
2018-01-14T01:22:48.566Z,0
2018-01-14T01:23:29.136Z,0
2018-01-14T01:24:09.689Z,0
2018-01-14T01:24:50.254Z,0
2018-01-14T01:25:30.830Z,0
2018-01-14T01:26:11.390Z,0
2018-01-14T01:26:51.954Z,0
2018-01-14T01:27:32.552Z,0
2018-01-14T01:28:13.092Z,0
2018-01-14T01:28:53.665Z,0
2018-01-14T01:29:34.219Z,0
2018-01-14T01:30:14.768Z,0
2018-01-14T01:30:55.320Z,0
2018-01-14T01:31:35.871Z,0
2018-01-14T01:32:16.425Z,0
2018-01-14T01:32:56.995Z,0
2018-01-14T01:33:37.552Z,0
2018-01-14T01:34:18.102Z,0
2018-01-14T01:34:58.679Z,0
2018-01-14T01:35:39.241Z,0
2018-01-14T01:36:19.809Z,0
2018-01-14T01:37:00.368Z,0
2018-01-14T01:37:40.918Z,0
2018-01-14T01:38:21.465Z,0
2018-01-14T01:39:02.031Z,0
2018-01-14T01:39:42.591Z,0
2018-01-14T01:40:23.149Z,0
2018-01-14T01:41:03.714Z,0
2018-01-14T01:41:44.281Z,0
2018-01-14T01:42:24.836Z,0
2018-01-14T01:43:05.382Z,0
2018-01-14T01:43:45.936Z,0
2018-01-14T01:44:26.504Z,0
2018-01-14T01:45:07.060Z,0
2018-01-14T01:45:47.623Z,0
2018-01-14T01:46:28.234Z,0
2018-01-14T01:47:08.741Z,0
2018-01-14T01:47:49.293Z,0
2018-01-14T01:48:29.851Z,0
2018-01-14T01:49:10.412Z,0
2018-01-14T01:49:50.967Z,0
2018-01-14T01:50:31.523Z,0
2018-01-14T01:51:12.076Z,0
2018-01-14T01:51:52.654Z,0
2018-01-14T01:52:33.210Z,0
2018-01-14T01:53:13.774Z,0
2018-01-14T01:53:54.340Z,0
2018-01-14T01:54:34.896Z,0
2018-01-14T01:55:15.458Z,0
2018-01-14T01:55:56.039Z,0
2018-01-14T01:56:36.584Z,0
2018-01-14T01:57:17.148Z,0
2018-01-14T01:57:57.725Z,0
2018-01-14T01:58:38.302Z,0
2018-01-14T01:59:18.862Z,0
2018-01-14T01:59:59.493Z,0
2018-01-14T02:00:40.035Z,0
2018-01-14T02:01:20.601Z,0
2018-01-14T02:02:01.153Z,0
2018-01-14T02:02:41.704Z,0
2018-01-14T02:03:22.254Z,0
2018-01-14T02:04:02.843Z,0
2018-01-14T02:04:43.405Z,0
2018-01-14T02:05:23.964Z,0
2018-01-14T02:06:04.536Z,0
2018-01-14T02:06:45.086Z,0
2018-01-14T02:07:25.638Z,0
2018-01-14T02:08:06.223Z,0
2018-01-14T02:08:46.794Z,0
2018-01-14T02:09:27.363Z,0
2018-01-14T02:10:07.940Z,0
2018-01-14T02:10:48.499Z,0
2018-01-14T02:11:29.070Z,0
2018-01-14T02:12:09.674Z,0
2018-01-14T02:12:50.221Z,0
2018-01-14T02:13:30.773Z,0
2018-01-14T02:14:11.372Z,0
2018-01-14T02:14:51.941Z,0
2018-01-14T02:15:32.508Z,0
2018-01-14T02:16:13.108Z,0
2018-01-14T02:16:53.685Z,0
2018-01-14T02:17:34.304Z,0
2018-01-14T02:18:14.877Z,0
2018-01-14T02:18:55.457Z,0
2018-01-14T02:19:36.031Z,0
2018-01-14T02:20:16.644Z,0
2018-01-14T02:20:57.210Z,0
2018-01-14T02:21:37.769Z,0
2018-01-14T02:22:18.340Z,0
2018-01-14T02:22:58.902Z,0
2018-01-14T02:23:39.465Z,0
2018-01-14T02:24:20.053Z,0
2018-01-14T02:25:00.661Z,0
2018-01-14T02:25:41.229Z,0
2018-01-14T02:26:21.798Z,0
2018-01-14T02:27:02.366Z,0
2018-01-14T02:27:42.948Z,0
2018-01-14T02:28:23.518Z,0
2018-01-14T02:29:04.108Z,0
2018-01-14T02:29:44.690Z,0
2018-01-14T02:30:25.314Z,0
2018-01-14T02:31:05.899Z,0
2018-01-14T02:31:46.463Z,0
2018-01-14T02:32:27.023Z,0
2018-01-14T02:33:07.603Z,0
2018-01-14T02:33:48.178Z,0
2018-01-14T02:34:28.738Z,0
2018-01-14T02:35:09.304Z,0
2018-01-14T02:35:49.870Z,0
2018-01-14T02:36:30.430Z,0
2018-01-14T02:37:11.025Z,0
2018-01-14T02:37:51.601Z,0
2018-01-14T02:38:32.157Z,0
2018-01-14T02:39:12.747Z,0
2018-01-14T02:39:53.331Z,0
2018-01-14T02:40:33.915Z,0
2018-01-14T02:41:14.475Z,0
2018-01-14T02:41:55.039Z,0
2018-01-14T02:42:35.603Z,0
2018-01-14T02:43:16.183Z,0
2018-01-14T02:43:56.747Z,0
2018-01-14T02:44:37.308Z,0
2018-01-14T02:45:17.910Z,0
2018-01-14T02:45:58.476Z,0
2018-01-14T02:46:39.068Z,0
2018-01-14T02:47:19.589Z,0
2018-01-14T02:48:00.147Z,0
2018-01-14T02:48:40.749Z,0
2018-01-14T02:49:21.306Z,0
2018-01-14T02:50:01.861Z,0
2018-01-14T02:50:42.416Z,0
2018-01-14T02:51:22.996Z,0
2018-01-14T02:52:03.537Z,0
2018-01-14T02:52:44.095Z,0
2018-01-14T02:53:24.661Z,0
2018-01-14T02:54:05.222Z,0
2018-01-14T02:54:45.760Z,0
2018-01-14T02:55:26.336Z,0
2018-01-14T02:56:06.880Z,0
2018-01-14T02:56:47.434Z,0
2018-01-14T02:57:27.997Z,0
2018-01-14T02:58:08.593Z,0
2018-01-14T02:58:49.161Z,0
2018-01-14T02:59:29.705Z,0
2018-01-14T03:00:10.271Z,0
2018-01-14T03:00:50.844Z,0
2018-01-14T03:01:31.397Z,0
2018-01-14T03:02:11.973Z,0
2018-01-14T03:02:52.543Z,0
2018-01-14T03:03:33.093Z,0
2018-01-14T03:04:15.490Z,0
2018-01-14T03:04:56.109Z,0
2018-01-14T03:05:36.669Z,0
2018-01-14T03:06:17.237Z,0
2018-01-14T03:06:57.851Z,0
2018-01-14T03:07:38.407Z,0
2018-01-14T03:08:18.971Z,0
2018-01-14T03:08:59.540Z,0
2018-01-14T03:09:40.107Z,0
2018-01-14T03:10:20.691Z,0
2018-01-14T03:11:01.238Z,0
2018-01-14T03:11:41.791Z,0
2018-01-14T03:12:22.358Z,0
2018-01-14T03:13:02.908Z,0
2018-01-14T03:13:43.462Z,0
2018-01-14T03:14:24.027Z,0
2018-01-14T03:15:04.583Z,0
2018-01-14T03:15:45.142Z,0
2018-01-14T03:16:25.708Z,0
2018-01-14T03:17:06.260Z,0
2018-01-14T03:17:46.847Z,0
2018-01-14T03:18:27.430Z,0
2018-01-14T03:19:08.042Z,0
2018-01-14T03:19:48.601Z,0
2018-01-14T03:20:29.180Z,0
2018-01-14T03:21:09.730Z,0
2018-01-14T03:21:50.296Z,0
2018-01-14T03:22:30.894Z,0
2018-01-14T03:23:11.458Z,0
2018-01-14T03:23:52.026Z,0
2018-01-14T03:24:32.607Z,0
2018-01-14T03:25:13.180Z,0
2018-01-14T03:25:53.739Z,0
2018-01-14T03:26:34.314Z,0
2018-01-14T03:27:14.866Z,0
2018-01-14T03:27:55.436Z,0
2018-01-14T03:28:36.010Z,0
2018-01-14T03:29:16.584Z,0
2018-01-14T03:29:57.148Z,0
2018-01-14T03:30:37.711Z,0
2018-01-14T03:31:18.269Z,0
2018-01-14T03:31:58.824Z,0
2018-01-14T03:32:39.385Z,0
2018-01-14T03:33:19.959Z,0
2018-01-14T03:34:00.551Z,0
2018-01-14T03:34:41.125Z,0
2018-01-14T03:35:21.697Z,0
2018-01-14T03:36:02.248Z,0
2018-01-14T03:36:42.800Z,0
2018-01-14T03:37:23.357Z,0
2018-01-14T03:38:03.917Z,0
2018-01-14T03:38:44.472Z,0
2018-01-14T03:39:25.035Z,0
2018-01-14T03:40:05.591Z,0
2018-01-14T03:40:46.184Z,0
2018-01-14T03:41:26.724Z,0
2018-01-14T03:42:07.278Z,0
2018-01-14T03:42:47.837Z,0
2018-01-14T03:43:28.393Z,0
2018-01-14T03:44:08.970Z,0
2018-01-14T03:44:49.532Z,0
2018-01-14T03:45:30.097Z,0
2018-01-14T03:46:10.646Z,0
2018-01-14T03:46:51.273Z,0
2018-01-14T03:47:31.848Z,0
2018-01-14T03:48:15.185Z,0
2018-01-14T03:48:55.751Z,0
2018-01-14T03:49:36.315Z,0
2018-01-14T03:50:16.881Z,0
2018-01-14T03:50:57.452Z,0
2018-01-14T03:51:40.982Z,0
2018-01-14T03:52:21.550Z,0
2018-01-14T03:53:02.116Z,0
2018-01-14T03:53:42.666Z,0
2018-01-14T03:54:23.241Z,0
2018-01-14T03:55:05.420Z,0
2018-01-14T03:55:45.078Z,0
2018-01-14T03:56:25.646Z,0
2018-01-14T03:57:08.981Z,0
2018-01-14T03:57:52.180Z,0
2018-01-14T03:58:32.741Z,0
2018-01-14T03:59:13.310Z,0
2018-01-14T03:59:56.682Z,0
2018-01-14T04:02:24.714Z,0
2018-01-14T04:03:06.020Z,0
2018-01-14T04:03:46.613Z,0
2018-01-14T04:04:27.203Z,0
2018-01-14T04:05:07.761Z,0
2018-01-14T04:05:48.316Z,0
2018-01-14T04:06:28.908Z,0
2018-01-14T04:07:09.495Z,0
2018-01-14T04:07:50.068Z,0
2018-01-14T04:08:30.618Z,0
2018-01-14T04:09:11.181Z,0
2018-01-14T04:09:51.742Z,0
2018-01-14T04:10:32.304Z,0
2018-01-14T04:11:12.858Z,0
2018-01-14T04:11:53.426Z,0
2018-01-14T04:12:33.967Z,0
2018-01-14T04:13:14.524Z,0
2018-01-14T04:13:55.081Z,0
2018-01-14T04:14:35.664Z,0
2018-01-14T04:15:16.273Z,0
2018-01-14T04:15:56.871Z,0
2018-01-14T04:16:37.431Z,0
2018-01-14T04:17:18.014Z,0
2018-01-14T04:17:58.582Z,0
2018-01-14T04:18:39.149Z,0
2018-01-14T04:19:19.697Z,0
2018-01-14T04:20:00.293Z,0
2018-01-14T04:20:40.860Z,0
2018-01-14T04:21:21.426Z,0
2018-01-14T04:22:01.996Z,0
2018-01-14T04:22:42.582Z,0
2018-01-14T04:23:23.156Z,0
2018-01-14T04:24:03.721Z,0
2018-01-14T04:24:44.290Z,0
2018-01-14T04:25:24.851Z,0
2018-01-14T04:26:05.408Z,0
2018-01-14T04:26:46.058Z,0
2018-01-14T04:27:26.645Z,0
2018-01-14T04:28:07.212Z,0
2018-01-14T04:28:47.787Z,0
2018-01-14T04:29:28.357Z,0
2018-01-14T04:30:08.993Z,0
2018-01-14T04:30:49.566Z,0
2018-01-14T04:31:31.014Z,0
2018-01-14T04:32:11.605Z,0
2018-01-14T04:32:52.162Z,0
2018-01-14T04:33:32.744Z,0
2018-01-14T04:34:13.274Z,0
2018-01-14T04:34:53.849Z,0
2018-01-14T04:35:34.415Z,0
2018-01-14T04:36:14.986Z,0
2018-01-14T04:36:55.563Z,0
2018-01-14T04:37:36.133Z,0
2018-01-14T04:38:16.713Z,0
2018-01-14T04:38:57.306Z,0
2018-01-14T04:39:37.850Z,0
2018-01-14T04:40:18.434Z,0
2018-01-14T04:40:59.008Z,0
2018-01-14T04:41:39.573Z,0
2018-01-14T04:42:20.143Z,0
2018-01-14T04:43:00.723Z,0
2018-01-14T04:43:41.298Z,0
2018-01-14T04:44:23.412Z,0
2018-01-14T04:45:03.980Z,0
2018-01-14T04:45:44.564Z,0
2018-01-14T04:46:25.182Z,0
2018-01-14T04:47:05.729Z,0
2018-01-14T04:47:46.293Z,0
2018-01-14T04:48:26.872Z,0
2018-01-14T04:49:07.440Z,0
2018-01-14T04:49:48.006Z,0
2018-01-14T04:50:28.562Z,0
2018-01-14T04:51:09.128Z,0
2018-01-14T04:51:49.703Z,0
2018-01-14T04:52:30.280Z,0
2018-01-14T04:53:10.850Z,0
2018-01-14T04:53:51.433Z,0
2018-01-14T04:54:31.997Z,0
2018-01-14T04:55:12.583Z,0
2018-01-14T04:55:53.152Z,0
2018-01-14T04:56:33.738Z,0
2018-01-14T04:57:14.303Z,0
2018-01-14T04:57:54.895Z,0
2018-01-14T04:58:35.460Z,0
2018-01-14T04:59:16.033Z,0
2018-01-14T04:59:56.601Z,0
2018-01-14T05:00:37.158Z,0
2018-01-14T05:01:17.736Z,0
2018-01-14T05:01:58.317Z,0
2018-01-14T05:02:38.885Z,0
2018-01-14T05:03:19.455Z,0
2018-01-14T05:04:00.009Z,0
2018-01-14T05:04:40.560Z,0
2018-01-14T05:05:21.166Z,0
2018-01-14T05:06:01.738Z,0
2018-01-14T05:06:42.314Z,0
2018-01-14T05:07:22.867Z,0
2018-01-14T05:08:03.436Z,0
2018-01-14T05:08:43.992Z,0
2018-01-14T05:09:24.616Z,0
2018-01-14T05:10:05.164Z,0
2018-01-14T05:10:45.720Z,0
2018-01-14T05:11:26.286Z,0
2018-01-14T05:12:06.858Z,0
2018-01-14T05:12:47.419Z,0
2018-01-14T05:13:27.998Z,0
2018-01-14T05:14:08.556Z,0
2018-01-14T05:14:49.123Z,0
2018-01-14T05:15:29.674Z,0
2018-01-14T05:16:10.234Z,0
2018-01-14T05:16:50.807Z,0
2018-01-14T05:17:31.393Z,0
2018-01-14T05:18:11.953Z,0
2018-01-14T05:18:52.549Z,0
2018-01-14T05:19:33.121Z,0
2018-01-14T05:20:13.704Z,0
2018-01-14T05:20:54.302Z,0
2018-01-14T05:21:34.876Z,0
2018-01-14T05:22:15.482Z,0
2018-01-14T05:22:56.050Z,0
2018-01-14T05:23:36.622Z,0
2018-01-14T05:24:17.195Z,0
2018-01-14T05:24:57.768Z,0
2018-01-14T05:25:38.322Z,0
2018-01-14T05:26:18.900Z,0
2018-01-14T05:26:59.458Z,0
2018-01-14T05:27:40.038Z,0
2018-01-14T05:28:20.596Z,0
2018-01-14T05:29:01.163Z,0
2018-01-14T05:29:41.727Z,0
2018-01-14T05:30:22.289Z,0
2018-01-14T05:31:02.884Z,0
2018-01-14T05:31:43.555Z,0
2018-01-14T05:32:24.126Z,0
2018-01-14T05:33:04.694Z,0
2018-01-14T05:33:45.279Z,0
2018-01-14T05:34:25.910Z,0
2018-01-14T05:35:06.449Z,0
2018-01-14T05:35:47.004Z,0
2018-01-14T05:36:27.555Z,0
2018-01-14T05:37:08.122Z,0
2018-01-14T05:37:48.674Z,0
2018-01-14T05:38:29.223Z,0
2018-01-14T05:39:09.778Z,0
2018-01-14T05:39:50.345Z,0
2018-01-14T05:40:30.919Z,0
2018-01-14T05:41:11.471Z,0
2018-01-14T05:41:52.030Z,0
2018-01-14T05:42:32.597Z,0
2018-01-14T05:43:13.209Z,0
2018-01-14T05:43:53.780Z,0
2018-01-14T05:44:34.358Z,0
2018-01-14T05:45:14.966Z,0
2018-01-14T05:45:55.490Z,0
2018-01-14T05:46:36.088Z,0
2018-01-14T05:47:16.648Z,0
2018-01-14T05:47:57.219Z,0
2018-01-14T05:48:37.805Z,0
2018-01-14T05:49:18.363Z,0
2018-01-14T05:49:58.922Z,0
2018-01-14T05:50:39.483Z,0
2018-01-14T05:51:20.060Z,0
2018-01-14T05:52:00.631Z,0
2018-01-14T05:52:41.185Z,0
2018-01-14T05:53:21.743Z,0
2018-01-14T05:54:02.301Z,0
2018-01-14T05:54:42.890Z,0
2018-01-14T05:55:23.456Z,0
2018-01-14T05:56:04.045Z,0
2018-01-14T05:56:44.597Z,0
2018-01-14T05:57:25.156Z,0
2018-01-14T05:58:05.723Z,0
2018-01-14T05:58:46.297Z,0
2018-01-14T05:59:26.848Z,0
2018-01-14T06:00:07.452Z,0
2018-01-14T06:00:48.029Z,0
2018-01-14T06:01:28.582Z,0
2018-01-14T06:02:09.173Z,0
2018-01-14T06:02:50.558Z,0
2018-01-14T06:03:31.171Z,0
2018-01-14T06:04:11.735Z,0
2018-01-14T06:04:52.295Z,0
2018-01-14T06:05:32.878Z,0
2018-01-14T06:06:13.522Z,0
2018-01-14T06:06:54.129Z,0
2018-01-14T06:07:34.707Z,0
2018-01-14T06:08:15.290Z,0
2018-01-14T06:08:55.877Z,0
2018-01-14T06:09:36.445Z,0
2018-01-14T06:10:17.037Z,0
2018-01-14T06:10:57.626Z,0
2018-01-14T06:11:38.175Z,0
2018-01-14T06:12:18.756Z,0
2018-01-14T06:12:59.337Z,0
2018-01-14T06:13:39.939Z,0
2018-01-14T06:14:20.500Z,0
2018-01-14T06:15:01.097Z,0
2018-01-14T06:15:41.662Z,0
2018-01-14T06:16:22.223Z,0
2018-01-14T06:17:02.805Z,0
2018-01-14T06:17:43.369Z,0
2018-01-14T06:18:23.944Z,0
2018-01-14T06:19:04.506Z,0
2018-01-14T06:19:45.059Z,0
2018-01-14T06:20:25.615Z,0
2018-01-14T06:21:06.191Z,0
2018-01-14T06:21:46.760Z,0
2018-01-14T06:22:27.321Z,0
2018-01-14T06:23:07.869Z,0
2018-01-14T06:23:48.461Z,0
2018-01-14T06:24:29.014Z,0
2018-01-14T06:25:09.586Z,0
2018-01-14T06:25:50.179Z,0
2018-01-14T06:26:30.761Z,0
2018-01-14T06:27:11.367Z,0
2018-01-14T06:27:51.975Z,0
2018-01-14T06:28:32.548Z,0
2018-01-14T06:29:13.094Z,0
2018-01-14T06:29:53.666Z,0
2018-01-14T06:30:34.238Z,0
2018-01-14T06:31:14.797Z,0
2018-01-14T06:31:55.378Z,0
2018-01-14T06:32:35.965Z,0
2018-01-14T06:33:16.545Z,0
2018-01-14T06:33:57.128Z,0
2018-01-14T06:34:37.694Z,0
2018-01-14T06:35:18.258Z,0
2018-01-14T06:35:58.824Z,0
2018-01-14T06:36:39.430Z,0
2018-01-14T06:37:19.986Z,0
2018-01-14T06:38:00.548Z,0
2018-01-14T06:38:41.129Z,0
2018-01-14T06:39:21.689Z,0
2018-01-14T06:40:02.259Z,0
2018-01-14T06:40:42.821Z,0
2018-01-14T06:41:23.372Z,0
2018-01-14T06:42:03.941Z,0
2018-01-14T06:42:44.505Z,0
2018-01-14T06:43:25.065Z,0
2018-01-14T06:44:05.633Z,0
2018-01-14T06:44:46.187Z,0
2018-01-14T06:45:26.748Z,0
2018-01-14T06:46:07.355Z,0
2018-01-14T06:46:47.914Z,0
2018-01-14T06:47:28.489Z,0
2018-01-14T06:48:09.043Z,0
2018-01-14T06:48:49.622Z,0
2018-01-14T06:49:30.204Z,0
2018-01-14T06:50:10.784Z,0
2018-01-14T06:50:51.330Z,0
2018-01-14T06:51:31.913Z,0
2018-01-14T06:52:12.458Z,0
2018-01-14T06:52:53.049Z,0
2018-01-14T06:53:33.603Z,0
2018-01-14T06:54:14.162Z,0
2018-01-14T06:54:54.714Z,0
2018-01-14T06:55:35.307Z,0
2018-01-14T06:56:15.918Z,0
2018-01-14T06:56:56.436Z,0
2018-01-14T06:57:37.018Z,0
2018-01-14T06:58:17.594Z,0
2018-01-14T06:58:58.177Z,0
2018-01-14T06:59:38.738Z,0
2018-01-14T07:00:19.307Z,0
2018-01-14T07:00:59.932Z,0
2018-01-14T07:01:40.471Z,0
2018-01-14T07:02:21.048Z,0
2018-01-14T07:03:01.619Z,0
2018-01-14T07:03:42.181Z,0
2018-01-14T07:04:22.801Z,0
2018-01-14T07:05:03.378Z,0
2018-01-14T07:05:43.937Z,0
2018-01-14T07:06:24.512Z,0
2018-01-14T07:07:05.078Z,0
2018-01-14T07:07:45.658Z,0
2018-01-14T07:08:26.240Z,0
2018-01-14T07:09:06.792Z,0
2018-01-14T07:09:47.346Z,5
2018-01-14T07:10:27.936Z,5
2018-01-14T07:11:08.511Z,5
2018-01-14T07:11:49.063Z,5
2018-01-14T07:12:29.614Z,5
2018-01-14T07:13:10.181Z,5
2018-01-14T07:13:51.542Z,5
2018-01-14T07:16:04.339Z,5
2018-01-14T07:16:44.897Z,5
2018-01-14T07:17:25.464Z,5
2018-01-14T07:18:06.018Z,5
2018-01-14T07:18:46.577Z,5
2018-01-14T07:19:27.139Z,5
2018-01-14T07:20:07.709Z,10
2018-01-14T07:20:48.275Z,10
2018-01-14T07:21:28.855Z,10
2018-01-14T07:22:09.408Z,10
2018-01-14T07:22:49.974Z,10
2018-01-14T07:23:30.540Z,10
2018-01-14T07:24:11.140Z,10
2018-01-14T07:24:51.719Z,10
2018-01-14T07:25:32.284Z,10
2018-01-14T07:26:12.856Z,10
2018-01-14T07:26:53.429Z,10
2018-01-14T07:27:33.988Z,15
2018-01-14T07:28:14.575Z,15
2018-01-14T07:28:55.136Z,15
2018-01-14T07:29:35.698Z,15
2018-01-14T07:30:16.355Z,15
2018-01-14T07:30:57.057Z,15
2018-01-14T07:31:37.698Z,15
2018-01-14T07:32:18.242Z,15
2018-01-14T07:32:58.793Z,15
2018-01-14T07:33:39.363Z,15
2018-01-14T07:34:19.915Z,20
2018-01-14T07:35:00.483Z,20
2018-01-14T07:35:41.102Z,20
2018-01-14T07:36:21.649Z,20
2018-01-14T07:37:02.200Z,20
2018-01-14T07:37:42.766Z,20
2018-01-14T07:38:23.325Z,20
2018-01-14T07:39:03.894Z,20
2018-01-14T07:39:44.449Z,20
2018-01-14T07:40:25.012Z,25
2018-01-14T07:41:05.559Z,25
2018-01-14T07:41:46.097Z,25
2018-01-14T07:42:26.666Z,25
2018-01-14T07:43:07.239Z,25
2018-01-14T07:43:47.806Z,25
2018-01-14T07:44:28.365Z,25
2018-01-14T07:45:08.925Z,25
2018-01-14T07:45:49.537Z,25
2018-01-14T07:46:30.093Z,30
2018-01-14T07:47:10.669Z,30
2018-01-14T07:47:51.234Z,30
2018-01-14T07:48:31.793Z,30
2018-01-14T07:49:12.360Z,30
2018-01-14T07:49:52.919Z,30
2018-01-14T07:50:33.482Z,30
2018-01-14T07:51:14.065Z,30
2018-01-14T07:51:54.630Z,35
2018-01-14T07:52:35.176Z,35
2018-01-14T07:53:15.736Z,35
2018-01-14T07:53:56.294Z,35
2018-01-14T07:54:36.850Z,35
2018-01-14T07:55:17.405Z,35
2018-01-14T07:55:58.029Z,35
2018-01-14T07:56:38.587Z,35
2018-01-14T07:57:19.167Z,40
2018-01-14T07:57:59.738Z,40
2018-01-14T07:58:40.331Z,40
2018-01-14T07:59:20.897Z,40
2018-01-14T08:00:01.466Z,40
2018-01-14T08:00:42.023Z,45
2018-01-14T08:01:22.588Z,45
2018-01-14T08:02:03.152Z,45
2018-01-14T08:02:43.729Z,45
2018-01-14T08:03:24.302Z,45
2018-01-14T08:04:04.884Z,50
2018-01-14T08:04:45.530Z,50
2018-01-14T08:05:26.136Z,50
2018-01-14T08:06:06.666Z,50
2018-01-14T08:06:47.278Z,50
2018-01-14T08:07:27.798Z,50
2018-01-14T08:08:08.360Z,50
2018-01-14T08:08:48.906Z,55
2018-01-14T08:09:29.453Z,55
2018-01-14T08:10:10.017Z,55
2018-01-14T08:10:50.574Z,55
2018-01-14T08:11:31.126Z,55
2018-01-14T08:12:11.686Z,55
2018-01-14T08:12:52.246Z,55
2018-01-14T08:13:32.823Z,55
2018-01-14T08:14:13.376Z,55
2018-01-14T08:14:53.935Z,55
2018-01-14T08:15:34.512Z,60
2018-01-14T08:16:15.067Z,60
2018-01-14T08:16:55.642Z,60
2018-01-14T08:17:36.214Z,60
2018-01-14T08:18:16.782Z,60
2018-01-14T08:18:57.369Z,60
2018-01-14T08:19:37.932Z,60
2018-01-14T08:20:18.498Z,65
2018-01-14T08:20:59.092Z,65
2018-01-14T08:21:39.643Z,65
2018-01-14T08:22:20.193Z,65
2018-01-14T08:23:00.749Z,65
2018-01-14T08:23:41.323Z,65
2018-01-14T08:24:21.899Z,65
2018-01-14T08:25:02.466Z,65
2018-01-14T08:25:43.027Z,65
2018-01-14T08:26:23.602Z,70
2018-01-14T08:27:04.174Z,70
2018-01-14T08:27:44.728Z,70
2018-01-14T08:28:25.290Z,70
2018-01-14T08:29:05.871Z,70
2018-01-14T08:29:46.463Z,70
2018-01-14T08:30:27.044Z,70
2018-01-14T08:31:07.599Z,70
2018-01-14T08:31:48.160Z,70
2018-01-14T08:32:28.737Z,70
2018-01-14T08:33:09.313Z,70
2018-01-14T08:33:49.890Z,70
2018-01-14T08:34:30.453Z,75
2018-01-14T08:35:11.027Z,75
2018-01-14T08:35:51.618Z,75
2018-01-14T08:36:32.170Z,75
2018-01-14T08:37:12.774Z,75
2018-01-14T08:37:53.327Z,75
2018-01-14T08:38:33.896Z,75
2018-01-14T08:39:14.459Z,75
2018-01-14T08:39:55.023Z,75
2018-01-14T08:40:35.602Z,75
2018-01-14T08:41:16.324Z,75
2018-01-14T08:41:56.842Z,75
2018-01-14T08:42:37.411Z,75
2018-01-14T08:43:18.000Z,75
2018-01-14T08:43:58.555Z,75
2018-01-14T08:44:39.118Z,80
2018-01-14T08:45:19.762Z,80
2018-01-14T08:46:00.309Z,80
2018-01-14T08:46:40.870Z,80
2018-01-14T08:47:21.433Z,80
2018-01-14T08:48:02.002Z,85
2018-01-14T08:48:42.565Z,115
2018-01-14T08:49:23.113Z,140
2018-01-14T08:50:03.675Z,160
2018-01-14T08:50:44.232Z,230
2018-01-14T08:51:24.800Z,175
2018-01-14T08:52:05.362Z,210
2018-01-14T08:52:45.951Z,220
2018-01-14T08:53:26.542Z,220
2018-01-14T08:54:07.130Z,205
2018-01-14T08:54:47.690Z,200
2018-01-14T08:55:28.262Z,220
2018-01-14T08:56:08.823Z,240
2018-01-14T08:56:49.384Z,275
2018-01-14T08:57:29.956Z,265
2018-01-14T08:58:11.142Z,250
2018-01-14T08:58:51.749Z,235
2018-01-14T08:59:32.308Z,220
2018-01-14T09:00:12.892Z,230
2018-01-14T09:00:53.494Z,225
2018-01-14T09:01:34.073Z,300
2018-01-14T09:02:14.661Z,365
2018-01-14T09:02:55.232Z,385
2018-01-14T09:03:35.825Z,390
2018-01-14T09:04:17.510Z,435
2018-01-14T09:04:58.095Z,480
2018-01-14T09:05:38.663Z,530
2018-01-14T09:06:19.240Z,500
2018-01-14T09:06:59.810Z,490
2018-01-14T09:07:40.374Z,460
2018-01-14T09:08:20.969Z,490
2018-01-14T09:09:01.502Z,525
2018-01-14T09:09:42.068Z,545
2018-01-14T09:10:22.617Z,505
2018-01-14T09:11:03.191Z,515
2018-01-14T09:11:43.771Z,415
2018-01-14T09:12:24.350Z,320
2018-01-14T09:13:04.907Z,270
2018-01-14T09:13:45.474Z,275
2018-01-14T09:14:26.042Z,295
2018-01-14T09:15:06.615Z,280
2018-01-14T09:15:47.176Z,265
2018-01-14T09:16:27.741Z,255
2018-01-14T09:17:08.309Z,260
2018-01-14T09:17:48.877Z,355
2018-01-14T09:18:29.440Z,375
2018-01-14T09:19:10.039Z,340
2018-01-14T09:19:50.596Z,420
2018-01-14T09:20:31.152Z,405
2018-01-14T09:21:11.744Z,360
2018-01-14T09:21:52.320Z,505
2018-01-14T09:22:32.894Z,240
2018-01-14T09:23:13.464Z,190
2018-01-14T09:23:54.048Z,210
2018-01-14T09:24:34.668Z,190
2018-01-14T09:25:15.218Z,185
2018-01-14T09:25:55.815Z,160
2018-01-14T09:26:36.397Z,185
2018-01-14T09:27:16.980Z,100
2018-01-14T09:27:57.540Z,95
2018-01-14T09:28:38.119Z,95
2018-01-14T09:29:18.677Z,85
2018-01-14T09:29:59.256Z,80
2018-01-14T09:30:39.818Z,70
2018-01-14T09:31:20.395Z,70
2018-01-14T09:32:00.982Z,80
2018-01-14T09:32:41.550Z,80
2018-01-14T09:33:22.118Z,80
2018-01-14T09:34:02.694Z,75
2018-01-14T09:34:43.284Z,70
2018-01-14T09:35:23.835Z,70
2018-01-14T09:36:04.411Z,65
2018-01-14T09:36:44.968Z,65
2018-01-14T09:37:25.531Z,65
2018-01-14T09:38:06.104Z,65
2018-01-14T09:38:46.704Z,60
2018-01-14T09:39:27.283Z,60
2018-01-14T09:40:07.851Z,55
2018-01-14T09:40:48.436Z,55
2018-01-14T09:41:29.210Z,55
2018-01-14T09:42:09.766Z,55
2018-01-14T09:42:50.369Z,55
2018-01-14T09:43:30.941Z,55
2018-01-14T09:44:11.526Z,55
2018-01-14T09:44:52.131Z,50
2018-01-14T09:45:32.686Z,50
2018-01-14T09:46:13.257Z,50
2018-01-14T09:46:53.865Z,50
2018-01-14T09:47:34.448Z,50
2018-01-14T09:48:15.013Z,45
2018-01-14T09:48:55.570Z,45
2018-01-14T09:49:36.155Z,45
2018-01-14T09:50:16.757Z,45
2018-01-14T09:50:57.318Z,45
2018-01-14T09:51:37.951Z,45
2018-01-14T09:52:19.169Z,45
2018-01-14T09:52:59.739Z,45
2018-01-14T09:53:40.354Z,45
2018-01-14T09:54:20.954Z,45
2018-01-14T09:55:01.537Z,45
2018-01-14T09:55:42.095Z,45
2018-01-14T09:56:22.785Z,45